ZAG weather

Zagreb Airport
Zagreb, Zagreb (city), Croatia

Public forecast

Using degrees Celsius for public forecast. Weather courtesy of forecast.io.

Current aviation weather report (METAR) for Zagreb Airport

Retrieved 2019/10/15 19:30 UTC (24 minutes ago):

LDZA 151930Z 22006KT CAVOK 14/11 Q1014 NOSIG

Aviation forecast (TAF) for Zagreb Airport

Retrieved 2019/10/15 18:27 UTC (1 hour ago):

TAF LDZA 151725Z 1518/1618 23004KT CAVOK TX20/1613Z TN09/1604Z PROB30 TEMPO 1607/1611 SHRA FEW030TCU BKN035